AirNav   Everest Fuels
 
 709 users online  

44NC Broadway Airfield
Landis, North Carolina, USA

GOING TO LANDIS?


FAA INFORMATION EFFECTIVE 03 NOVEMBER 2022

Location

FAA Identifier: 44NC
Lat/Long: 35-32-36.0000N 080-39-07.0000W
35-32.600000N 080-39.116667W
35.5433333,-80.6519444
(estimated)
Elevation: 828 ft. / 252 m (estimated)
Variation: 06W (1995)
From city: 4 miles N of LANDIS, NC
Time zone: UTC -5 (UTC -4 during Daylight Saving Time)
Zip code: 28023

Airport Operations

Airport use: Private use. Permission required prior to landing
Activation date: 06/1999
Control tower: no
ARTCC: ATLANTA CENTER
FSS: RALEIGH FLIGHT SERVICE STATION
Attendance: UNATNDD
Wind indicator: yes
Segmented circle: no

Airport Communications

WX AWOS-3 at RUQ (9 nm NE): 118.175 (704-637-6197)
WX AWOS-3 at JQF (10 nm S): 133.675 (704-785-2145)
WX AWOS-3 at SVH (20 nm NW): 119.225 (704-873-1978)

Nearby radio navigation aids

VOR radial/distance  VOR name  Freq  Var
CLTr040/25.8CHARLOTTE VOR/DME115.0005W
BZMr130/34.7BARRETTS MOUNTAIN VOR/DME113.7506W

 
NDB name  Hdg/Dist  Freq  Var  ID
ROVDY221/13.927506WRU .-. ..-
STONIA056/32.526006WGHJ --. .... .---

Airport Services

Runway Information

Runway 9/27

Dimensions: 2200 x 200 ft. / 671 x 61 m
Surface: turf
RUNWAY 9  RUNWAY 27
Traffic pattern: leftleft
Obstructions: 100 ft. trees, 100 ft. from runway50 ft. trees, 100 ft. from runway

Airport Ownership and Management from official FAA records

Ownership: Privately-owned
Owner: PRI. GRIMES DAVID BROADWAY
1690 CANDON FARM ROAD
CHINA GROVE, NC 28023
Phone 704-933-0308
Manager: MARK DAVID BROADWAY
2180 CANNON FARM ROAF
CHINA GROVE, NC 28023
Phone 704-223-2307

Airport Operational Statistics

Aircraft based on the field: 2
Single engine airplanes: 2
    

Additional Remarks

FOR CD CTC CHARLOTTE APCH AT 704-359-0241.

Instrument Procedures

There are no published instrument procedures at 44NC.

Some nearby airports with instrument procedures:

KRUQ - Mid-Carolina Regional Airport (9 nm NE)
KJQF - Concord-Padgett Regional Airport (10 nm S)
14A - Lake Norman Airpark (13 nm W)
KSVH - Statesville Regional Airport (20 nm NW)
KEXX - Davidson County Airport (22 nm NE)
 
Loc | Ops | Rwys | IFR | FBO | Links
Com | Nav | Svcs | Stats | Notes
Area around 44NC (Broadway Airfield)
 
Road maps at: MapQuest Bing Google
 
Aerial photo
No photo
 
Sectional chart

 
Airport distance calculator
Flying to Broadway Airfield? Find the distance to fly.

From to 44NC

Sunrise and sunset
Times for 28-Nov-2022
 Local
(UTC-5)
 Zulu
(UTC)
Morning civil twilight06:4411:44
Sunrise07:1212:12
Sunset17:0922:09
Evening civil twilight17:3722:37

Current date and time
Zulu (UTC)  28-Nov-2022 12:44:56
Local (UTC-5)  28-Nov-2022 07:44:56
 
METAR
KRUQ 
9nm NE 
281235Z AUTO 00000KT 10SM CLR 05/04 A2985 RMK AO2 T00460039
KJQF 
10nm S 
281235Z AUTO 00000KT 10SM CLR 07/06 A2988 RMK AO2
KSVH 
19nm NW 
281235Z AUTO 00000KT 10SM CLR 06/04 A2985 RMK AO2 T00560041
TAF
KCLT 
24nm SW 
281131Z 2812/2918 25004KT P6SM SKC FM281500 28006KT P6SM FEW250 FM282000 30004KT P6SM FEW030 FM290400 05003KT P6SM SKC FM291400 08005KT P6SM FEW250
NOTAMs
Click for the latest NOTAMs
NOTAMs are issued by the DoD/FAA and will open in a separate window not controlled by AirNav.

 

 
 

Would you like to see your business listed on this page?

 If your business provides an interesting product or service to pilots, flight crews, aircraft, or users of the Broadway Airfield, you should consider listing it here.  To start the listing process, click on the button below
 
Add a business
 

Other Pages about Broadway Airfield

Update a link
 
Copyright © AirNav, LLC. All rights reserved. Privacy Policy  Contact